Time;durP1;ratioP1;P1;durP2;ratioP2;P2;SDS_P1;SDS_P2;PMS_P1;PMS_P2;Temp;Humidity;BMP_temperature;BMP_pressure;BME280_temperature;BME280_humidity;BME280_pressure;Samples;Min_cycle;Max_cycle;Signal;HPM_P1;HPM_P2
2021/06/10 00:00:58;;;;;;;5.78;4.22;;;;;;;12.87;100.00;102108.63;3609090;39;20060;-66
2021/06/10 00:03:24;;;;;;;5.45;4.55;;;;;;;12.95;100.00;102113.41;3608143;39;20646;-67
2021/06/10 00:05:50;;;;;;;8.05;4.40;;;;;;;12.89;100.00;102111.22;3609323;39;20069;-66
2021/06/10 00:08:16;;;;;;;4.90;4.15;;;;;;;12.71;100.00;102108.09;3641780;22;20322;-67
2021/06/10 00:10:45;;;;;;;5.20;3.92;;;;;;;12.58;100.00;102102.78;3598717;39;20055;-67
2021/06/10 00:13:13;;;;;;;10.18;3.97;;;;;;;12.65;100.00;102111.25;3598022;39;20075;-67
2021/06/10 00:15:39;;;;;;;5.18;3.75;;;;;;;12.71;100.00;102110.81;3598673;39;20331;-66
2021/06/10 00:18:06;;;;;;;4.88;3.97;;;;;;;12.74;100.00;102108.72;3599136;39;20042;-67
2021/06/10 00:20:34;;;;;;;6.70;4.15;;;;;;;12.58;100.00;102103.63;3599309;39;20038;-67
2021/06/10 00:23:02;;;;;;;6.25;4.03;;;;;;;12.62;100.00;102106.97;3598405;39;20036;-67
2021/06/10 00:25:29;;;;;;;7.82;3.67;;;;;;;12.60;100.00;102099.00;3597698;39;20298;-66
2021/06/10 00:27:58;;;;;;;8.52;4.13;;;;;;;12.50;100.00;102105.22;3598067;39;20438;-67
2021/06/10 00:30:24;;;;;;;6.30;4.38;;;;;;;12.43;100.00;102100.28;3598550;39;20054;-66
2021/06/10 00:32:51;;;;;;;6.60;4.68;;;;;;;12.50;100.00;102100.69;3598720;39;20345;-67
2021/06/10 00:35:18;;;;;;;5.93;4.60;;;;;;;12.50;100.00;102094.41;3597615;39;20052;-67
2021/06/10 00:37:45;;;;;;;6.05;4.40;;;;;;;12.35;100.00;102096.44;3598545;39;20066;-67
2021/06/10 00:40:13;;;;;;;5.25;4.38;;;;;;;12.51;100.00;102096.13;3598944;39;20684;-67
2021/06/10 00:42:40;;;;;;;5.13;4.63;;;;;;;12.51;100.00;102091.59;3598767;39;20050;-67
2021/06/10 00:45:10;;;;;;;6.20;4.55;;;;;;;12.40;100.00;102099.69;3598421;39;20297;-67
2021/06/10 00:47:37;;;;;;;6.53;5.30;;;;;;;12.30;100.00;102087.84;3598525;39;20109;-67
2021/06/10 00:50:03;;;;;;;8.27;5.45;;;;;;;12.31;100.00;102078.75;3598546;39;20097;-66
2021/06/10 00:52:29;;;;;;;7.55;4.82;;;;;;;12.39;100.00;102089.84;3598383;39;20047;-67
2021/06/10 00:54:55;;;;;;;7.10;5.82;;;;;;;12.26;100.00;102082.69;3598635;39;20158;-67
2021/06/10 00:57:21;;;;;;;9.10;5.55;;;;;;;12.31;100.00;102100.34;3598852;39;20071;-66
2021/06/10 00:59:47;;;;;;;8.05;5.82;;;;;;;12.45;100.00;102094.78;3598754;39;20044;-66
2021/06/10 01:02:15;;;;;;;7.88;6.00;;;;;;;12.34;100.00;102083.97;3598067;39;20056;-68
2021/06/10 01:04:41;;;;;;;7.60;5.55;;;;;;;12.33;100.00;102082.22;3596194;39;20058;-67
2021/06/10 01:07:10;;;;;;;6.95;5.80;;;;;;;12.38;100.00;102080.91;3598934;39;20052;-66
2021/06/10 01:09:42;;;;;;;11.25;6.20;;;;;;;12.25;100.00;102080.97;3591394;39;20057;-67
2021/06/10 01:12:16;;;;;;;8.73;6.20;;;;;;;12.26;100.00;102085.41;3588970;40;20074;-67
2021/06/10 01:14:48;;;;;;;8.43;6.57;;;;;;;12.30;100.00;102083.31;3587097;40;20040;-66
2021/06/10 01:17:17;;;;;;;8.35;6.20;;;;;;;12.41;100.00;102085.19;3588572;40;20044;-66
2021/06/10 01:20:04;;;;;;;8.98;6.00;;;;;;;12.46;100.00;102082.16;3589049;40;20081;-67
2021/06/10 01:22:38;;;;;;;8.57;6.32;;;;;;;12.37;100.00;102083.72;3588728;40;20070;-66
2021/06/10 01:25:14;;;;;;;8.20;6.05;;;;;;;12.18;100.00;102078.84;3587731;40;20104;-66
2021/06/10 01:27:45;;;;;;;10.15;6.93;;;;;;;12.02;100.00;102073.75;3587970;40;20057;-67
2021/06/10 01:30:14;;;;;;;11.50;6.78;;;;;;;11.98;100.00;102072.25;3584873;40;20399;-67
2021/06/10 01:32:44;;;;;;;9.20;6.50;;;;;;;11.96;100.00;102071.53;3587048;40;20048;-67
2021/06/10 01:35:12;;;;;;;9.05;6.70;;;;;;;11.98;100.00;102067.72;3586269;40;20036;-67
2021/06/10 01:37:41;;;;;;;9.80;6.95;;;;;;;11.96;100.00;102068.84;3589167;40;20045;-67
2021/06/10 01:40:09;;;;;;;10.02;6.25;;;;;;;11.81;100.00;102060.88;3588858;40;20046;-67
2021/06/10 01:42:37;;;;;;;9.98;6.60;;;;;;;11.78;100.00;102063.81;3587762;40;20048;-68
2021/06/10 01:45:06;;;;;;;8.95;6.60;;;;;;;11.87;100.00;102065.81;3586582;40;20553;-67
2021/06/10 01:47:32;;;;;;;9.35;6.50;;;;;;;11.85;100.00;102056.97;3587509;40;20033;-67
2021/06/10 01:49:59;;;;;;;8.98;6.90;;;;;;;11.85;100.00;102062.38;3587045;40;20051;-67
2021/06/10 01:52:27;;;;;;;10.05;6.97;;;;;;;11.85;100.00;102059.69;3586716;40;20036;-66
2021/06/10 01:54:55;;;;;;;10.68;6.75;;;;;;;11.77;100.00;102048.59;3587755;40;20139;-68
2021/06/10 01:57:21;;;;;;;10.35;7.35;;;;;;;11.67;100.00;102048.41;3587575;40;20064;-67
2021/06/10 01:59:48;;;;;;;10.02;7.15;;;;;;;11.60;100.00;102043.59;3588267;40;20322;-67
2021/06/10 02:02:16;;;;;;;10.02;7.53;;;;;;;11.61;100.00;102043.47;3584452;40;20032;-66
2021/06/10 02:04:43;;;;;;;12.05;7.80;;;;;;;11.66;100.00;102045.81;3586368;40;20479;-67
2021/06/10 02:07:10;;;;;;;10.68;7.85;;;;;;;11.65;100.00;102050.38;3587073;40;20276;-67
2021/06/10 02:09:37;;;;;;;10.25;7.03;;;;;;;11.62;100.00;102049.75;3594558;39;20043;-66
2021/06/10 02:12:04;;;;;;;9.43;6.88;;;;;;;11.71;100.00;102049.03;3598167;39;20071;-67
2021/06/10 02:14:31;;;;;;;11.10;6.90;;;;;;;11.68;100.00;102043.88;3598079;39;20368;-67
2021/06/10 02:16:59;;;;;;;11.23;7.90;;;;;;;11.50;100.00;102036.19;3597082;39;20512;-67
2021/06/10 02:19:27;;;;;;;12.38;8.73;;;;;;;11.38;100.00;102037.06;3598424;39;20044;-67
2021/06/10 02:21:53;;;;;;;12.38;8.50;;;;;;;11.36;100.00;102039.88;3596654;39;20067;-66
2021/06/10 02:24:19;;;;;;;11.32;8.43;;;;;;;11.34;100.00;102030.19;3596721;39;20329;-66
2021/06/10 02:26:45;;;;;;;13.43;9.20;;;;;;;11.30;100.00;102023.31;3597924;39;20399;-66
2021/06/10 02:29:11;;;;;;;14.23;8.88;;;;;;;11.31;100.00;102017.81;3597722;39;20048;-66
2021/06/10 02:31:38;;;;;;;13.57;9.18;;;;;;;11.36;100.00;102017.47;3597884;39;20123;-67
2021/06/10 02:34:04;;;;;;;11.10;8.75;;;;;;;11.34;100.00;102024.81;3598088;39;20039;-67
2021/06/10 02:36:33;;;;;;;13.57;8.73;;;;;;;11.30;100.00;102023.31;3596456;39;20066;-66
2021/06/10 02:39:04;;;;;;;14.60;7.68;;;;;;;11.31;100.00;102020.50;3598247;39;20047;-65
2021/06/10 02:41:32;;;;;;;12.98;8.18;;;;;;;11.26;100.00;102022.66;3598213;39;20036;-66
2021/06/10 02:44:00;;;;;;;15.23;8.40;;;;;;;11.32;100.00;102024.94;3597135;39;20044;-67
2021/06/10 02:46:28;;;;;;;11.65;7.78;;;;;;;11.28;100.00;102027.94;3598268;39;20124;-67
2021/06/10 02:48:55;;;;;;;15.25;8.80;;;;;;;11.14;100.00;102035.19;3598090;39;20036;-66
2021/06/10 02:51:23;;;;;;;12.07;8.32;;;;;;;11.16;100.00;102030.56;3598713;39;20456;-65
2021/06/10 02:53:51;;;;;;;13.15;7.90;;;;;;;11.16;100.00;102017.09;3667069;22;20053;-66
2021/06/10 02:56:18;;;;;;;14.95;8.15;;;;;;;11.13;100.00;102020.00;3618023;39;20595;-66
2021/06/10 02:58:45;;;;;;;8.52;6.90;;;;;;;11.26;100.00;102022.66;3618068;39;20055;-65
2021/06/10 03:03:43;;;;;;;12.43;7.65;;;;;;;11.25;100.00;102020.06;3627415;23;20066;-65
2021/06/10 03:06:10;;;;;;;10.00;6.88;;;;;;;11.31;100.00;102014.25;3607919;39;20063;-65
2021/06/10 03:08:37;;;;;;;11.43;6.57;;;;;;;11.35;100.00;102016.59;3607196;39;20091;-67
2021/06/10 03:11:07;;;;;;;9.98;6.45;;;;;;;11.36;100.00;102012.06;3607853;39;20040;-66
2021/06/10 03:13:34;;;;;;;9.95;6.43;;;;;;;11.38;100.00;102015.50;3607558;39;20039;-66
2021/06/10 03:16:02;;;;;;;8.60;6.45;;;;;;;11.49;100.00;102020.13;3607594;39;20036;-66
2021/06/10 03:18:29;;;;;;;12.68;6.95;;;;;;;11.57;100.00;102023.09;3607645;39;20044;-67
2021/06/10 03:20:58;;;;;;;11.55;6.75;;;;;;;11.54;100.00;102026.91;3607942;39;20076;-66
2021/06/10 03:23:24;;;;;;;9.65;6.80;;;;;;;11.46;100.00;102023.91;3607844;39;20139;-65
2021/06/10 03:25:51;;;;;;;12.18;7.53;;;;;;;11.61;100.00;102026.44;3607725;39;20055;-66
2021/06/10 03:28:21;;;;;;;11.90;7.00;;;;;;;11.56;100.00;102019.53;3608177;39;20047;-67
2021/06/10 03:30:47;;;;;;;11.65;7.88;;;;;;;11.53;100.00;102024.31;3608167;39;20067;-65
2021/06/10 03:33:13;;;;;;;12.48;7.28;;;;;;;11.46;100.00;102015.81;3608371;39;20051;-67
2021/06/10 03:35:40;;;;;;;12.30;8.77;;;;;;;11.52;100.00;102011.81;3608021;39;20049;-66
2021/06/10 03:38:07;;;;;;;15.43;9.48;;;;;;;11.56;100.00;102019.53;3606570;39;20127;-66
2021/06/10 03:40:34;;;;;;;12.52;8.88;;;;;;;11.54;100.00;102024.19;3607355;39;20055;-66
2021/06/10 03:43:01;;;;;;;15.43;8.63;;;;;;;11.54;100.00;102010.72;3608119;39;20044;-66
2021/06/10 03:45:29;;;;;;;12.48;8.52;;;;;;;11.58;100.00;102012.19;3606570;39;20298;-66
2021/06/10 03:47:55;;;;;;;13.50;8.65;;;;;;;11.61;100.00;102010.25;3608021;39;20059;-66
2021/06/10 03:50:23;;;;;;;13.32;8.57;;;;;;;11.53;100.00;102008.13;3607730;39;20051;-67
2021/06/10 03:52:49;;;;;;;12.00;9.40;;;;;;;11.54;100.00;102008.03;3608067;39;20194;-67
2021/06/10 03:55:16;;;;;;;18.00;10.57;;;;;;;11.58;100.00;102014.03;3607211;39;20041;-66
2021/06/10 03:57:42;;;;;;;14.85;9.93;;;;;;;11.58;100.00;102008.66;3607754;39;20040;-66
2021/06/10 04:03:00;;;;;;;14.63;10.35;;;;;;;11.69;100.00;102010.53;3617555;22;20167;-67
2021/06/10 04:05:28;;;;;;;17.55;11.90;;;;;;;11.83;100.00;102006.81;3588148;39;20156;-67
2021/06/10 04:07:55;;;;;;;19.05;12.43;;;;;;;11.84;100.00;102011.22;3587088;39;20043;-67
2021/06/10 04:10:21;;;;;;;19.23;13.07;;;;;;;11.93;100.00;101997.06;3587496;39;20051;-67
2021/06/10 04:12:47;;;;;;;20.42;13.80;;;;;;;11.98;100.00;101991.31;3587596;39;21649;-66
2021/06/10 04:15:14;;;;;;;23.40;14.18;;;;;;;12.07;100.00;101991.47;3586959;39;20157;-68
2021/06/10 04:17:40;;;;;;;17.10;12.50;;;;;;;12.20;100.00;101995.91;3587243;39;20424;-67
2021/06/10 04:20:09;;;;;;;19.33;13.30;;;;;;;12.25;100.00;102000.00;3587541;39;20390;-68
2021/06/10 04:22:35;;;;;;;17.02;12.52;;;;;;;12.31;100.00;101987.84;3587758;39;20073;-66
2021/06/10 04:25:01;;;;;;;22.25;13.15;;;;;;;12.36;100.00;101996.44;3587620;39;20060;-68
2021/06/10 04:27:27;;;;;;;20.08;13.65;;;;;;;12.41;100.00;101991.56;3588739;39;20048;-67
2021/06/10 04:29:53;;;;;;;20.77;14.80;;;;;;;12.44;100.00;101988.63;3587669;39;20365;-67
2021/06/10 04:32:19;;;;;;;18.77;12.43;;;;;;;12.53;100.00;101980.75;3587543;39;20190;-67
2021/06/10 04:34:45;;;;;;;19.00;13.35;;;;;;;12.66;100.00;101983.34;3586650;39;20044;-67
2021/06/10 04:37:12;;;;;;;16.10;12.52;;;;;;;12.69;100.00;101980.38;3587090;39;20122;-68
2021/06/10 04:39:38;;;;;;;20.60;14.02;;;;;;;12.69;100.00;101975.00;3587829;39;20044;-67
2021/06/10 04:42:05;;;;;;;19.63;13.27;;;;;;;12.84;100.00;101987.28;3587432;39;20071;-67
2021/06/10 04:44:31;;;;;;;24.05;12.93;;;;;;;12.88;100.00;101987.88;3586635;39;20060;-66
2021/06/10 04:46:57;;;;;;;18.98;12.60;;;;;;;12.97;100.00;101989.88;3589138;39;20060;-66
2021/06/10 04:49:23;;;;;;;21.27;12.30;;;;;;;13.38;100.00;101992.88;3589178;39;20407;-66
2021/06/10 04:51:49;;;;;;;18.85;12.38;;;;;;;14.33;100.00;101995.66;3589402;39;20052;-67
2021/06/10 04:54:16;;;;;;;16.10;11.15;;;;;;;14.75;100.00;102004.75;3587825;39;20175;-66
2021/06/10 04:56:42;;;;;;;14.63;11.05;;;;;;;15.32;100.00;102003.25;3589386;39;20047;-68
2021/06/10 04:59:08;;;;;;;13.85;10.80;;;;;;;16.13;100.00;101998.63;3588042;39;20064;-66
2021/06/10 05:01:34;;;;;;;13.80;9.50;;;;;;;16.53;100.00;101997.53;3587967;39;20052;-66
2021/06/10 05:04:00;;;;;;;12.95;9.85;;;;;;;17.59;100.00;102002.63;3589387;39;20120;-67
2021/06/10 05:06:26;;;;;;;13.32;9.52;;;;;;;19.53;100.00;101998.75;3589353;39;20083;-67
2021/06/10 05:08:52;;;;;;;14.43;9.27;;;;;;;21.75;100.00;101991.09;3587980;39;20040;-67
2021/06/10 05:11:19;;;;;;;10.70;8.30;;;;;;;19.62;100.00;102007.81;3588805;39;20051;-68
2021/06/10 05:13:45;;;;;;;13.27;9.88;;;;;;;16.76;100.00;102004.31;3588330;39;20629;-66
2021/06/10 05:16:11;;;;;;;15.57;9.50;;;;;;;16.01;100.00;102006.91;3588306;39;20063;-67
2021/06/10 05:18:37;;;;;;;11.98;9.25;;;;;;;15.99;100.00;102014.34;3589611;39;20068;-68
2021/06/10 05:21:03;;;;;;;14.73;10.60;;;;;;;15.32;100.00;102013.25;3587992;39;20056;-68
2021/06/10 05:23:29;;;;;;;13.60;9.77;;;;;;;15.26;100.00;102011.09;3588700;39;20054;-67
2021/06/10 05:25:55;;;;;;;16.55;10.32;;;;;;;15.52;100.00;102022.31;3588726;39;20052;-68
2021/06/10 05:28:22;;;;;;;12.48;10.10;;;;;;;15.48;100.00;102020.84;3589154;39;20071;-67
2021/06/10 05:30:48;;;;;;;13.75;9.35;;;;;;;15.53;100.00;102021.28;3650631;22;20101;-67
2021/06/10 05:33:14;;;;;;;15.00;10.18;;;;;;;15.38;100.00;102018.97;3587819;39;20335;-66
2021/06/10 05:35:40;;;;;;;15.18;10.65;;;;;;;15.84;100.00;102023.91;3588032;40;20067;-66
2021/06/10 05:38:07;;;;;;;16.52;11.95;;;;;;;15.79;100.00;102024.34;3586754;39;20403;-67
2021/06/10 05:40:33;;;;;;;13.27;10.32;;;;;;;15.78;100.00;102019.91;3589309;39;20048;-68
2021/06/10 05:43:01;;;;;;;15.88;11.63;;;;;;;15.63;100.00;102022.16;3588652;39;20060;-67
2021/06/10 05:45:28;;;;;;;15.40;11.93;;;;;;;15.93;100.00;102012.22;3588685;39;20415;-68
2021/06/10 05:47:54;;;;;;;14.82;12.82;;;;;;;15.87;100.00;102013.66;3588941;40;20040;-68
2021/06/10 05:50:20;;;;;;;16.75;11.95;;;;;;;16.31;100.00;102010.44;3587965;39;20314;-67
2021/06/10 05:52:46;;;;;;;15.88;12.02;;;;;;;16.33;100.00;102019.31;3587991;39;20064;-68
2021/06/10 05:55:12;;;;;;;17.80;13.50;;;;;;;16.28;100.00;102021.59;3588406;39;20137;-68
2021/06/10 05:57:38;;;;;;;20.15;14.55;;;;;;;16.19;100.00;102023.34;3582058;39;20045;-67
2021/06/10 06:00:07;;;;;;;18.98;14.18;;;;;;;16.39;100.00;102029.59;3586035;39;20059;-68
2021/06/10 06:02:34;;;;;;;19.67;13.35;;;;;;;16.66;100.00;102027.13;3586133;39;20079;-68
2021/06/10 06:05:00;;;;;;;18.70;14.15;;;;;;;16.94;100.00;102028.88;3587403;40;20082;-68
2021/06/10 06:07:26;;;;;;;15.73;13.50;;;;;;;17.01;100.00;102026.44;3586263;39;20076;-67
2021/06/10 06:09:52;;;;;;;17.80;13.25;;;;;;;17.15;100.00;102025.94;3587380;39;20055;-67
2021/06/10 06:12:21;;;;;;;15.23;12.35;;;;;;;17.06;100.00;102021.41;3579385;39;20142;-66
2021/06/10 06:14:47;;;;;;;19.02;13.43;;;;;;;17.33;100.00;102025.16;3587360;39;20044;-67
2021/06/10 06:17:15;;;;;;;15.25;12.82;;;;;;;17.48;100.00;102028.19;3586940;40;20042;-67
2021/06/10 06:19:42;;;;;;;17.02;12.93;;;;;;;17.61;100.00;102036.00;3586627;39;20081;-67
2021/06/10 06:22:09;;;;;;;16.88;12.63;;;;;;;17.98;100.00;102032.31;3588384;40;20052;-67
2021/06/10 06:24:35;;;;;;;18.33;12.43;;;;;;;17.57;100.00;102037.31;3587058;39;20057;-66
2021/06/10 06:27:02;;;;;;;13.90;12.02;;;;;;;17.95;100.00;102043.53;3585024;39;20048;-66
2021/06/10 06:29:28;;;;;;;13.02;11.60;;;;;;;18.25;100.00;102038.66;3586479;40;20067;-67
2021/06/10 06:31:54;;;;;;;14.52;10.65;;;;;;;18.32;100.00;102037.88;3586888;40;20052;-67
2021/06/10 06:34:20;;;;;;;13.80;11.32;;;;;;;18.34;100.00;102040.44;3588519;39;20084;-66
2021/06/10 06:36:48;;;;;;;14.75;11.80;;;;;;;18.25;100.00;102038.66;3585271;40;20599;-66
2021/06/10 06:39:15;;;;;;;14.20;10.80;;;;;;;18.26;100.00;102041.22;3657908;22;20066;-65
2021/06/10 06:41:41;;;;;;;14.02;11.02;;;;;;;18.46;100.00;102041.91;3573143;39;20047;-66
2021/06/10 06:44:08;;;;;;;10.95;9.50;;;;;;;18.62;100.00;102043.88;3586336;39;20140;-66
2021/06/10 06:46:34;;;;;;;13.45;9.75;;;;;;;18.68;100.00;102045.09;3583534;40;20390;-66
2021/06/10 06:49:00;;;;;;;13.65;10.60;;;;;;;18.82;100.00;102041.78;3583615;40;20060;-66
2021/06/10 06:51:26;;;;;;;10.65;9.05;;;;;;;18.82;100.00;102041.78;3587741;39;20051;-65
2021/06/10 06:53:54;;;;;;;9.75;8.55;;;;;;;18.85;100.00;102040.63;3586598;39;20393;-65
2021/06/10 06:56:21;;;;;;;11.13;7.60;;;;;;;18.98;100.00;102040.22;3586727;39;20051;-67
2021/06/10 06:58:47;;;;;;;13.80;8.63;;;;;;;19.08;100.00;102049.13;3583626;39;20274;-67
2021/06/10 07:01:13;;;;;;;12.25;8.60;;;;;;;19.37;100.00;102039.66;3586523;39;20078;-68
2021/06/10 07:03:39;;;;;;;10.27;8.77;;;;;;;19.55;100.00;102048.63;3586631;39;20060;-65
2021/06/10 07:06:05;;;;;;;11.32;8.88;;;;;;;19.82;100.00;102046.66;3586400;39;20044;-66
2021/06/10 07:08:31;;;;;;;10.77;8.80;;;;;;;19.68;100.00;102050.00;3586103;39;20045;-66
2021/06/10 07:10:59;;;;;;;9.85;8.07;;;;;;;19.85;100.00;102053.66;3586024;39;20048;-67
2021/06/10 07:13:26;;;;;;;13.27;8.25;;;;;;;19.69;100.00;102047.09;3586213;39;20054;-67
2021/06/10 07:15:53;;;;;;;10.48;7.25;;;;;;;19.82;100.00;102053.97;3588473;39;20080;-66
2021/06/10 07:18:19;;;;;;;10.15;8.20;;;;;;;20.06;100.00;102053.16;3589522;39;20129;-66
2021/06/10 07:20:45;;;;;;;14.18;8.60;;;;;;;20.02;100.00;102054.53;3590473;39;20048;-67
2021/06/10 07:23:11;;;;;;;8.35;6.53;;;;;;;20.56;100.00;102043.06;3588456;39;20051;-67
2021/06/10 07:25:38;;;;;;;8.55;7.13;;;;;;;20.55;97.62;102050.41;3589289;39;20036;-67
2021/06/10 07:28:05;;;;;;;8.27;6.43;;;;;;;20.33;87.24;102056.56;3583904;39;20083;-66
2021/06/10 07:30:32;;;;;;;13.15;6.78;;;;;;;20.55;99.67;102055.88;3587898;39;20134;-66
2021/06/10 07:32:58;;;;;;;7.75;6.38;;;;;;;20.74;95.95;102059.31;3587687;39;20060;-66
2021/06/10 07:35:24;;;;;;;9.02;7.63;;;;;;;20.83;89.90;102060.97;3585912;39;20051;-65
2021/06/10 07:37:51;;;;;;;7.97;7.10;;;;;;;20.52;94.17;102056.22;3586733;40;20144;-66
2021/06/10 07:40:19;;;;;;;11.90;8.20;;;;;;;20.74;100.00;102071.09;3587036;39;20048;-67
2021/06/10 07:42:45;;;;;;;11.15;8.52;;;;;;;20.80;100.00;102061.34;3658020;22;20040;-65
2021/06/10 07:45:14;;;;;;;10.45;8.00;;;;;;;21.06;100.00;102063.81;3596977;39;20055;-66
2021/06/10 07:47:40;;;;;;;11.73;7.38;;;;;;;21.43;99.42;102070.50;3597157;39;20036;-66
2021/06/10 07:50:08;;;;;;;7.68;6.55;;;;;;;21.48;93.81;102067.22;3597737;39;20043;-65
2021/06/10 07:52:35;;;;;;;9.02;7.10;;;;;;;21.62;93.44;102077.47;3597720;39;20046;-66
2021/06/10 07:55:01;;;;;;;9.70;7.28;;;;;;;21.65;90.04;102074.38;3595672;39;20076;-66
2021/06/10 07:57:27;;;;;;;8.45;6.18;;;;;;;21.53;77.04;102067.59;3593545;39;20542;-66
2021/06/10 07:59:53;;;;;;;16.10;5.53;;;;;;;21.32;69.75;102066.28;3595085;39;20235;-67
2021/06/10 08:02:22;;;;;;;7.68;5.60;;;;;;;21.51;66.56;102072.41;3582078;39;20054;-66
2021/06/10 08:04:48;;;;;;;;;;;;;;;21.93;63.87;102076.59;3596012;39;20071;-66
2021/06/10 08:07:14;;;;;;;10.48;5.57;;;;;;;22.20;71.59;102082.56;3596836;39;20298;-65
2021/06/10 08:09:40;;;;;;;7.38;5.85;;;;;;;21.82;65.97;102087.97;3595781;39;20070;-66
2021/06/10 08:12:07;;;;;;;8.90;5.38;;;;;;;21.65;64.56;102084.47;3597129;39;20059;-65
2021/06/10 08:14:33;;;;;;;8.70;4.88;;;;;;;21.89;64.41;102078.00;3596457;39;20040;-65
2021/06/10 08:16:59;;;;;;;5.03;4.28;;;;;;;22.16;60.35;102089.47;3596381;39;20377;-65
2021/06/10 08:19:27;;;;;;;6.90;5.03;;;;;;;22.14;62.03;102089.66;3593252;39;20051;-66
2021/06/10 08:21:53;;;;;;;6.85;5.00;;;;;;;22.27;63.03;102091.75;3596312;39;20044;-66
2021/06/10 08:24:19;;;;;;;9.52;5.13;;;;;;;22.53;64.30;102099.63;3597700;39;20060;-65
2021/06/10 08:26:47;;;;;;;6.20;3.90;;;;;;;22.38;61.52;102093.28;3598279;39;20152;-66
2021/06/10 08:29:13;;;;;;;5.00;4.05;;;;;;;22.43;55.72;102089.97;3597586;39;20059;-66
2021/06/10 08:31:39;;;;;;;6.05;3.22;;;;;;;22.66;55.93;102096.28;3597936;39;20070;-66
2021/06/10 08:34:06;;;;;;;4.50;3.35;;;;;;;22.94;57.28;102084.66;3597560;39;20091;-66
2021/06/10 08:36:33;;;;;;;5.10;3.42;;;;;;;22.81;57.26;102090.78;3598523;39;20064;-66
2021/06/10 08:39:00;;;;;;;5.18;3.45;;;;;;;22.75;63.36;102097.88;3598116;39;20044;-67
2021/06/10 08:41:27;;;;;;;5.55;4.20;;;;;;;22.54;60.73;102095.00;3598651;39;20050;-67
2021/06/10 08:43:53;;;;;;;6.03;3.60;;;;;;;22.88;66.13;102090.91;3598316;39;20315;-65
2021/06/10 08:46:22;;;;;;;4.07;3.30;;;;;;;23.09;64.42;102087.41;3598074;39;20055;-66
2021/06/10 08:48:51;;;;;;;3.30;2.60;;;;;;;23.16;64.60;102090.25;3598730;39;20136;-66
2021/06/10 08:51:17;;;;;;;4.57;2.65;;;;;;;23.73;57.42;102088.66;3595732;39;20043;-67
2021/06/10 08:53:46;;;;;;;8.10;2.72;;;;;;;23.92;57.08;102087.22;3595086;39;20058;-67
2021/06/10 08:56:12;;;;;;;4.70;3.10;;;;;;;23.77;53.28;102085.34;3594367;39;20135;-66
2021/06/10 08:58:39;;;;;;;3.95;2.53;;;;;;;24.00;56.58;102084.34;3598765;39;20050;-67
2021/06/10 09:01:11;;;;;;;4.05;3.25;;;;;;;23.44;57.88;102082.22;3598506;39;20039;-65
2021/06/10 09:03:37;;;;;;;3.95;2.95;;;;;;;23.08;60.78;102075.56;3599335;39;20055;-65
2021/06/10 09:06:06;;;;;;;4.20;2.70;;;;;;;23.82;59.18;102083.91;3598370;39;20036;-66
2021/06/10 09:08:32;;;;;;;5.53;3.13;;;;;;;23.99;54.51;102087.31;3598946;39;20111;-65
2021/06/10 09:11:10;;;;;;;4.13;2.75;;;;;;;24.08;55.88;102077.88;3596771;39;20390;-66
2021/06/10 09:13:43;;;;;;;5.13;2.90;;;;;;;24.12;62.54;102085.53;3598093;39;20051;-66
2021/06/10 09:16:27;;;;;;;5.28;3.90;;;;;;;24.23;57.66;102080.53;3597500;39;20043;-66
2021/06/10 09:18:59;;;;;;;5.22;3.55;;;;;;;24.60;58.25;102078.56;3598282;39;20052;-66
2021/06/10 09:21:31;;;;;;;4.80;3.45;;;;;;;24.48;56.34;102075.47;3598503;39;20059;-66
2021/06/10 09:24:15;;;;;;;4.80;3.35;;;;;;;24.87;58.14;102078.75;3598903;39;20032;-66
2021/06/10 09:26:43;;;;;;;7.13;3.47;;;;;;;24.30;59.21;102068.53;3598592;39;20391;-65
2021/06/10 09:29:10;;;;;;;5.22;3.55;;;;;;;24.29;58.84;102066.88;3599084;39;20054;-65
2021/06/10 09:31:36;;;;;;;4.85;3.42;;;;;;;24.62;53.39;102070.97;3599105;39;20156;-66
2021/06/10 09:34:07;;;;;;;6.22;3.58;;;;;;;24.86;53.23;102066.03;3598567;39;20113;-66
2021/06/10 09:36:40;;;;;;;7.10;3.17;;;;;;;24.54;58.43;102063.66;3598679;39;20088;-66
2021/06/10 09:39:13;;;;;;;5.00;3.50;;;;;;;24.69;55.84;102065.50;3598038;39;20054;-66
2021/06/10 09:42:08;;;;;;;6.07;3.08;;;;;;;24.69;58.74;102055.34;3598756;39;20052;-65
2021/06/10 09:44:41;;;;;;;8.65;3.22;;;;;;;25.31;55.48;102063.78;3589490;39;20116;-66
2021/06/10 09:47:08;;;;;;;6.18;3.17;;;;;;;25.25;53.56;102070.06;3598376;39;20120;-67
2021/06/10 09:49:34;;;;;;;6.07;3.92;;;;;;;24.98;53.17;102069.91;3599043;39;20410;-66
2021/06/10 09:52:02;;;;;;;5.97;3.83;;;;;;;25.24;51.58;102062.88;3598853;39;20097;-66
2021/06/10 09:54:47;;;;;;;7.55;3.92;;;;;;;25.56;52.69;102060.47;3598825;39;20059;-66
2021/06/10 09:57:15;;;;;;;6.18;3.53;;;;;;;25.52;56.67;102058.13;3598157;39;20154;-66
2021/06/10 09:59:45;;;;;;;;;;;;;;;25.05;53.97;102070.81;3600006;39;20048;-66
2021/06/10 10:02:23;;;;;;;5.85;4.13;;;;;;;25.14;56.62;102069.59;3598553;39;19962;-66
2021/06/10 10:04:59;;;;;;;8.40;4.85;;;;;;;25.51;52.84;102061.09;3599396;39;20088;-66
2021/06/10 10:07:27;;;;;;;4.80;3.97;;;;;;;25.87;52.61;102065.44;3594856;39;20059;-66
2021/06/10 10:09:55;;;;;;;7.93;6.05;;;;;;;25.45;53.63;102070.19;3593769;39;20087;-66
2021/06/10 10:12:24;;;;;;;6.70;5.28;;;;;;;25.02;61.11;102071.22;3592883;39;20040;-66
2021/06/10 10:14:50;;;;;;;5.88;5.25;;;;;;;25.11;58.09;102064.47;3592605;39;20055;-65
2021/06/10 10:17:17;;;;;;;6.93;5.03;;;;;;;25.61;55.17;102057.94;3597562;39;20341;-65
2021/06/10 10:19:43;;;;;;;6.50;4.18;;;;;;;25.60;55.54;102061.75;3598915;39;20040;-65
2021/06/10 10:22:12;;;;;;;6.15;3.90;;;;;;;25.39;52.30;102071.03;3598363;39;20093;-65
2021/06/10 10:24:38;;;;;;;5.60;3.40;;;;;;;25.66;57.14;102066.44;3598596;39;20048;-66
2021/06/10 10:27:05;;;;;;;6.20;4.28;;;;;;;25.54;62.27;102074.44;3597245;39;20156;-65
2021/06/10 10:29:33;;;;;;;5.95;5.07;;;;;;;25.27;56.06;102070.72;3598205;39;20072;-64
2021/06/10 10:31:59;;;;;;;5.85;4.07;;;;;;;25.37;61.94;102060.19;3598441;39;20055;-65
2021/06/10 10:34:27;;;;;;;4.32;3.28;;;;;;;25.64;54.39;102063.88;3596715;39;20112;-66
2021/06/10 10:36:53;;;;;;;7.05;3.55;;;;;;;25.51;50.24;102058.34;3598730;39;20040;-65
2021/06/10 10:39:29;;;;;;;5.55;4.20;;;;;;;25.43;53.11;102064.03;3595283;39;20040;-65
2021/06/10 10:41:58;;;;;;;5.53;4.60;;;;;;;25.25;57.27;102072.81;3598674;39;20067;-66
2021/06/10 10:44:26;;;;;;;5.20;4.50;;;;;;;25.86;54.89;102061.81;3597810;39;20047;-65
2021/06/10 10:47:02;;;;;;;7.63;4.97;;;;;;;25.81;53.64;102064.38;3597267;39;20059;-65
2021/06/10 10:49:31;;;;;;;8.00;4.82;;;;;;;25.52;50.71;102060.88;3593733;39;20122;-65
2021/06/10 10:52:27;;;;;;;6.72;4.57;;;;;;;24.96;52.94;102064.63;3596396;39;20124;-66
2021/06/10 10:54:53;;;;;;;5.75;4.05;;;;;;;25.24;53.02;102051.84;3594996;39;20135;-68
2021/06/10 10:57:39;;;;;;;5.57;4.10;;;;;;;25.68;51.22;102045.88;3589325;39;20048;-66
2021/06/10 11:00:06;;;;;;;5.72;3.92;;;;;;;26.15;54.09;102056.19;3596910;39;20420;-67
2021/06/10 11:02:36;;;;;;;5.55;4.53;;;;;;;25.74;49.23;102057.16;3598172;39;20373;-66
2021/06/10 11:05:05;;;;;;;7.35;5.53;;;;;;;25.39;49.97;102043.47;3589730;39;20077;-67
2021/06/10 11:07:51;;;;;;;4.78;3.38;;;;;;;26.23;50.96;102045.75;3597855;39;20047;-67
2021/06/10 11:10:55;;;;;;;4.97;3.05;;;;;;;27.07;45.69;102035.03;3598114;39;20117;-68
2021/06/10 11:13:22;;;;;;;6.95;4.07;;;;;;;27.10;43.74;102045.69;3597784;39;20489;-67
2021/06/10 11:15:49;;;;;;;6.25;4.30;;;;;;;27.00;46.30;102047.19;3598018;39;20311;-68
2021/06/10 11:18:48;;;;;;;8.23;5.07;;;;;;;26.05;47.76;102045.56;3597520;39;20429;-67
2021/06/10 11:21:34;;;;;;;;;;;;;;;26.77;47.08;102040.22;3598280;39;20512;-67
2021/06/10 11:24:13;;;;;;;6.68;4.53;;;;;;;27.62;44.08;102026.31;3598830;39;19946;-68